Latest Weather Observations for Lord Howe Island

IDN60801

Issued at 7:22 pm EST Wednesday 12 August 2020 (issued every 10 minutes, with the page automatically refreshed every 10 minutes)

About weather observations | Map of weather stations | Latest weather observations for NSW | Other Formats
Station Details ID: 200839 Name: LORD HOWE ISLAND AERO Lat: -31.54 Lon: 159.08 Height: 5.0 m
Data from the previous 72 hours. | See also: Recent months at Lord Howe Island

Observations are collected in the New South Wales time zone (Eastern Standard Time) which includes daylight savings in the summer period. Therefore 'Rain since 9am' totals and other values are based on the New South Wales time zone, which may differ from local time.

Date/Time
EST
Temp
°C
App
Temp
°C
Dew
Point
°C
Rel
Hum
%
Delta-T
°C
Wind Press
QNH
hPa
Press
MSL
hPa
Rain since
9am
mm
Dir  Spd
km/h
Gust
km/h
Spd
kts
Gust
kts
12/07:00pm 16.9 13.3 10.7 67 3.3 ENE 20 24 11 13 1017.3 1017.3 0.0
12/06:30pm 16.7 13.8 11.0 69 3.1 ENE 17 20 9 11 1017.3 1017.3 0.0
12/06:00pm 16.6 13.6 10.7 68 3.1 E 17 24 9 13 1017.2 1017.2 0.0
12/05:30pm 16.5 13.4 10.4 67 3.2 ENE 17 22 9 12 1017.0 1017.0 0.0
12/05:00pm 15.9 13.5 10.2 69 3.0 ESE 13 20 7 11 1016.9 1016.9 0.0
12/04:30pm 16.6 13.5 10.2 66 3.4 E 17 22 9 12 1017.0 1017.0 0.0
12/04:00pm 17.5 14.8 10.4 63 3.8 E 15 20 8 11 1016.8 1016.8 0.0
12/03:30pm 17.8 15.4 10.2 61 4.0 E 13 17 7 9 1017.1 1017.1 0.0
12/03:00pm 18.4 16.1 10.3 59 4.3 ENE 13 17 7 9 1017.3 1017.3 0.0
12/02:30pm 18.6 16.5 11.2 62 4.0 E 13 19 7 10 1017.3 1017.3 0.0
12/02:00pm 18.9 16.8 11.2 61 4.2 ENE 13 20 7 11 1017.4 1017.4 0.0
12/01:30pm 18.7 16.0 10.5 59 4.4 ENE 15 19 8 10 1017.5 1017.5 0.0
12/01:00pm 18.7 16.9 10.8 60 4.3 ENE 11 17 6 9 1017.9 1017.9 0.0
12/12:30pm 17.8 15.8 10.2 61 4.0 ENE 11 17 6 9 1018.4 1018.4 0.0
12/12:00pm 18.0 16.7 11.1 64 3.7 E 9 15 5 8 1018.7 1018.7 0.0
12/11:30am 18.3 15.9 9.9 58 4.4 E 13 20 7 11 1018.6 1018.6 0.0
12/11:00am 18.3 15.1 9.9 58 4.4 E 17 22 9 12 1018.6 1018.6 0.0
12/10:30am 18.3 14.6 9.6 57 4.6 E 19 28 10 15 1018.4 1018.4 0.0
12/10:00am 18.3 15.5 9.9 58 4.4 E 15 20 8 11 1019.1 1019.1 0.0
12/09:30am 18.7 16.1 9.2 54 5.0 E 13 17 7 9 1019.7 1019.7 0.0
12/09:00am 18.4 15.8 9.5 56 4.7 E 13 15 7 8 1019.9 1019.8 0.0
12/08:30am 18.8 15.4 9.0 53 5.1 E 17 22 9 12 1019.7 1019.7 3.8
12/08:00am 17.8 15.8 8.6 55 4.7 ESE 9 17 5 9 1019.7 1019.7 3.8
12/07:30am 17.3 16.1 9.7 61 4.0 S 6 15 3 8 1019.6 1019.6 3.8
12/07:00am 17.5 16.4 9.9 61 4.0 SSE 6 13 3 7 1019.2 1019.2 3.8
12/06:30am 16.9 15.5 9.6 62 3.8 SE 7 13 4 7 1018.8 1018.8 3.8
12/06:00am 16.3 15.2 10.6 69 3.0 SE 7 17 4 9 1018.5 1018.5 3.8
12/05:30am 16.4 15.1 11.1 71 2.8 SE 9 13 5 7 1017.9 1017.9 3.8
12/05:00am 16.0 14.7 10.1 68 3.1 SE 7 13 4 7 1017.6 1017.6 3.8
12/04:30am 16.1 14.4 10.0 67 3.2 SE 9 15 5 8 1017.3 1017.3 3.8
12/04:00am 16.0 14.0 10.1 68 3.1 SE 11 19 6 10 1017.1 1017.1 3.8
12/03:30am 16.6 14.9 10.0 65 3.5 SE 9 15 5 8 1017.1 1017.1 3.8
12/03:00am 16.5 14.7 9.4 63 3.7 SE 9 15 5 8 1017.0 1017.0 3.8
12/02:30am 16.2 14.1 9.6 65 3.4 SE 11 15 6 8 1017.0 1017.0 3.8
12/02:00am 16.3 15.4 11.5 73 2.6 SE 7 13 4 7 1017.1 1017.1 3.8
12/01:30am 15.5 14.7 11.7 78 2.1 ESE 7 15 4 8 1017.1 1017.1 3.8
12/01:00am 16.1 14.6 10.6 70 2.9 S 9 13 5 7 1017.1 1017.1 3.8
12/12:30am 15.6 13.9 9.7 68 3.1 SSE 9 17 5 9 1017.2 1017.2 3.8
12/12:00am 16.1 14.5 10.2 68 3.1 SSW 9 15 5 8 1017.0 1017.0 3.8
 
Date/Time
EST
Temp
°C
App
Temp
°C
Dew
Point
°C
Rel
Hum
%
Delta-T
°C
Wind Press
QNH
hPa
Press
MSL
hPa
Rain since
9am
mm
Dir  Spd
km/h
Gust
km/h
Spd
kts
Gust
kts
11/11:30pm 16.2 14.5 9.8 66 3.3 SSW 9 17 5 9 1016.9 1016.9 3.8
11/11:00pm 15.7 13.5 9.4 66 3.3 SSW 11 22 6 12 1016.7 1016.7 3.8
11/10:30pm 15.0 13.6 9.6 70 2.8 NW 7 13 4 7 1016.6 1016.6 3.8
11/10:00pm 16.1 14.5 8.8 62 3.7 ENE 7 19 4 10 1016.5 1016.5 3.8
11/09:30pm 16.7 14.0 9.1 61 3.9 ESE 13 26 7 14 1016.4 1016.4 3.8
11/09:00pm 16.5 14.6 9.2 62 3.8 SSE 9 20 5 11 1016.3 1016.3 3.8
11/08:30pm 16.3 14.1 9.5 64 3.5 SE 11 24 6 13 1016.0 1016.0 3.8
11/08:00pm 16.5 12.8 10.1 66 3.4 SSW 20 39 11 21 1015.8 1015.8 3.8
11/07:30pm 16.7 13.9 11.2 70 3.0 SSW 17 37 9 20 1015.6 1015.6 3.8
11/07:00pm 17.0 13.3 11.5 70 3.0 SSW 22 50 12 27 1015.3 1015.3 3.6
11/06:30pm 16.8 13.6 11.9 73 2.7 SSW 20 43 11 23 1015.0 1015.0 3.6
11/06:00pm 16.6 13.7 12.8 78 2.1 SSW 20 43 11 23 1014.3 1014.3 3.6
11/05:30pm 16.3 13.6 13.4 83 1.6 SSW 20 33 11 18 1014.0 1014.0 3.6
11/05:00pm 16.4 13.2 13.1 81 1.8 SSW 22 41 12 22 1013.5 1013.5 3.6
11/04:51pm 16.4 12.0 12.8 79 2.0 SSW 28 46 15 25 1013.2 1013.2 3.6
11/04:30pm 16.4 12.6 12.4 77 2.2 SSW 24 59 13 32 1012.8 1012.8 3.6
11/04:21pm 16.3 12.7 13.0 81 1.8 SSW 24 56 13 30 1012.5 1012.5 3.6
11/04:02pm 15.9 12.9 13.6 86 1.3 SSW 22 50 12 27 1012.6 1012.6 3.0
11/04:01pm 16.2 12.9 14.0 87 1.2 SSW 24 50 13 27 1012.5 1012.5 3.0
11/04:00pm 16.1 12.8 13.9 87 1.2 SSW 24 50 13 27 1012.5 1012.5 2.8
11/03:39pm 16.1 14.1 13.9 87 1.2 S 17 33 9 18 1012.2 1012.2 2.0
11/03:30pm 16.9 14.5 13.8 82 1.8 SSW 19 32 10 17 1012.0 1012.0 1.0
11/03:18pm 16.9 14.4 13.4 80 2.0 SSW 19 41 10 22 1011.9 1011.9 1.0
11/03:01pm 16.9 13.5 13.6 81 1.9 SSW 24 46 13 25 1011.7 1011.7 1.0
11/03:00pm 16.9 13.1 13.6 81 1.9 SSW 26 46 14 25 1011.6 1011.6 1.0
11/02:57pm 16.8 12.6 13.5 81 1.9 SW 28 46 15 25 1011.3 1011.3 1.0
11/02:44pm 16.3 13.1 14.3 88 1.1 SSW 24 48 13 26 1011.5 1011.5 1.0
11/02:33pm 16.6 15.0 13.9 84 1.5 S 15 37 8 20 1011.6 1011.6 0.6
11/02:30pm 16.7 14.5 13.4 81 1.9 SSW 17 37 9 20 1011.5 1011.5 0.4
11/02:00pm 16.9 13.3 13.0 78 2.2 SSW 24 39 13 21 1011.2 1011.2 0.2
11/01:35pm 17.7 13.4 13.2 75 2.5 SSW 28 52 15 28 1010.8 1010.8 0.2
11/01:30pm 18.7 15.1 13.1 70 3.2 SSW 24 44 13 24 1010.8 1010.8 0.2
11/01:00pm 18.9 16.2 12.9 68 3.4 SSW 19 37 10 20 1010.7 1010.7 0.2
11/12:30pm 19.2 16.7 12.2 64 3.9 SSW 17 33 9 18 1010.3 1010.3 0.2
11/12:00pm 18.6 16.4 12.1 66 3.6 SSW 15 32 8 17 1010.4 1010.4 0.2
11/11:30am 18.9 16.4 12.2 65 3.7 SSW 17 32 9 17 1010.7 1010.7 0.2
11/11:00am 18.4 16.0 11.5 64 3.8 SW 15 37 8 20 1010.6 1010.6 0.2
11/10:30am 18.9 16.8 11.2 61 4.2 S 13 28 7 15 1010.2 1010.2 0.2
11/10:00am 18.6 16.6 11.4 63 3.9 S 13 35 7 19 1010.2 1010.2 0.0
11/09:30am 18.7 16.1 12.0 65 3.7 SSW 17 39 9 21 1010.4 1010.4 0.0
11/09:00am 19.0 17.0 12.7 67 3.5 SE 15 32 8 17 1009.9 1009.9 0.0
11/08:30am 18.3 17.0 12.5 69 3.2 ESE 11 28 6 15 1009.4 1009.4 4.8
11/08:00am 17.2 15.6 12.7 75 2.5 SE 13 33 7 18 1008.9 1008.9 4.8
11/07:30am 17.5 15.2 13.0 75 2.5 SSE 17 37 9 20 1008.0 1008.0 4.8
11/07:00am 16.9 13.0 12.0 73 2.7 SSW 24 54 13 29 1007.3 1007.3 4.8
11/06:30am 16.7 10.2 13.0 79 2.1 SSW 39 61 21 33 1006.5 1006.5 4.8
11/06:00am 17.0 12.7 14.3 84 1.5 SSW 30 50 16 27 1005.9 1005.9 4.8
11/05:30am 16.8 12.6 14.6 87 1.3 SSW 30 57 16 31 1005.3 1005.3 4.8
11/05:22am 16.4 12.0 14.2 87 1.3 SSW 30 56 16 30 1005.1 1005.1 4.8
11/05:15am 16.7 12.8 14.3 86 1.4 SSW 28 56 15 30 1005.0 1005.0 4.8
11/05:09am 16.5 13.4 15.5 94 0.6 SSW 26 50 14 27 1005.0 1005.0 4.8
11/05:00am 16.0 12.7 15.0 94 0.6 SSW 26 43 14 23 1005.1 1005.1 4.8
11/04:51am 15.6 11.4 13.6 88 1.1 SSW 28 54 15 29 1005.3 1005.3 4.2
11/04:50am 15.8 11.7 13.8 88 1.1 SSW 28 54 15 29 1005.2 1005.2 4.2
11/04:30am 15.5 12.9 14.9 96 0.3 SSW 22 39 12 21 1005.2 1005.2 4.0
11/04:29am 15.5 12.5 14.9 96 0.3 SSW 24 39 13 21 1005.3 1005.3 4.0
11/04:25am 15.5 12.5 14.7 95 0.5 SSW 24 39 13 21 1005.3 1005.3 4.0
11/04:17am 15.1 12.1 13.8 92 0.7 SSW 22 35 12 19 1005.4 1005.4 4.0
11/04:00am 14.5 13.3 14.0 97 0.3 SW 13 19 7 10 1005.6 1005.6 3.8
11/03:52am 14.8 13.2 14.0 95 0.4 SW 15 24 8 13 1005.3 1005.3 2.8
11/03:30am 14.8 12.3 14.2 96 0.3 SW 20 32 11 17 1006.0 1006.0 1.4
11/03:28am 14.8 12.3 14.0 95 0.4 SW 20 32 11 17 1006.0 1006.0 1.4
11/03:00am 15.8 12.0 13.5 86 1.3 SW 26 39 14 21 1005.8 1005.8 0.6
11/02:30am 16.0 13.2 12.6 80 1.9 SW 19 28 10 15 1005.8 1005.8 0.4
11/02:00am 16.3 13.5 12.7 79 2.0 SW 19 26 10 14 1006.0 1006.0 0.2
11/01:30am 15.6 13.5 12.5 82 1.7 SSW 15 24 8 13 1006.1 1006.1 0.2
11/01:00am 15.0 12.7 10.4 74 2.4 SSW 13 20 7 11 1006.4 1006.4 0.2
11/12:30am 14.7 13.1 10.3 75 2.3 SSW 9 15 5 8 1006.7 1006.7 0.2
11/12:00am 14.4 12.9 10.4 77 2.1 SSW 9 13 5 7 1006.8 1006.8 0.2
 
Date/Time
EST
Temp
°C
App
Temp
°C
Dew
Point
°C
Rel
Hum
%
Delta-T
°C
Wind Press
QNH
hPa
Press
MSL
hPa
Rain since
9am
mm
Dir  Spd
km/h
Gust
km/h
Spd
kts
Gust
kts
10/11:30pm 14.0 12.6 11.0 82 1.6 SSW 9 13 5 7 1006.7 1006.7 0.2
10/11:00pm 11.4 10.4 11.1 98 0.2 SSW 7 11 4 6 1006.7 1006.7 0.2
10/10:30pm 10.2 10.2 9.9 98 0.2 CALM 0 0 0 0 1006.9 1006.9 0.2
10/10:00pm 10.5 10.5 9.7 95 0.4 CALM 0 0 0 0 1006.7 1006.7 0.2
10/09:30pm 10.9 9.8 9.8 93 0.6 SSW 6 9 3 5 1006.6 1006.6 0.2
10/09:00pm 11.6 11.3 10.0 90 0.8 S 2 6 1 3 1006.5 1006.5 0.2
10/08:30pm 12.9 13.2 10.8 87 1.1 CALM 0 0 0 0 1006.5 1006.5 0.2
10/08:00pm 14.5 13.6 11.5 82 1.6 SSW 7 11 4 6 1006.4 1006.4 0.2
10/07:30pm 14.9 13.7 12.9 88 1.1 SSW 11 22 6 12 1006.3 1006.3 0.2
10/07:00pm 13.3 13.4 11.4 88 1.0 S 2 7 1 4 1005.9 1005.9 0.2
10/06:30pm 14.1 12.5 10.3 78 2.0 NNW 9 13 5 7 1005.8 1005.8 0.2
10/06:00pm 12.7 12.6 9.3 80 1.7 CALM 0 0 0 0 1005.5 1005.5 0.2
10/05:30pm 13.5 13.4 9.4 76 2.1 CALM 0 6 0 3 1005.3 1005.3 0.2
10/05:00pm 15.0 12.8 9.4 69 2.9 SSW 11 15 6 8 1004.8 1004.8 0.2
10/04:30pm 16.3 15.0 9.9 66 3.4 NW 7 11 4 6 1004.6 1004.6 0.2
10/04:00pm 16.9 14.6 9.1 60 4.1 WNW 11 13 6 7 1004.5 1004.5 0.2
10/03:30pm 17.7 15.2 9.8 60 4.2 WNW 13 20 7 11 1004.4 1004.4 0.2
10/03:00pm 17.7 14.7 9.3 58 4.4 WNW 15 28 8 15 1004.2 1004.2 0.2
10/02:30pm 17.9 15.2 10.5 62 4.0 WNW 15 20 8 11 1004.3 1004.3 0.2
10/02:00pm 17.7 14.2 10.1 61 4.0 W 19 30 10 16 1004.4 1004.4 0.2
10/01:30pm 18.6 15.4 9.9 57 4.6 W 17 28 9 15 1004.4 1004.4 0.2
10/01:00pm 17.6 14.4 11.2 66 3.5 W 19 26 10 14 1004.4 1004.4 0.2
10/12:30pm 19.3 15.9 11.1 59 4.5 W 20 28 11 15 1004.6 1004.6 0.2
10/12:00pm 19.1 15.8 11.7 62 4.1 W 20 28 11 15 1005.0 1005.0 0.2
10/11:30am 18.5 15.3 11.3 63 3.9 W 19 28 10 15 1005.2 1005.2 0.2
10/11:00am 18.5 14.8 11.6 64 3.8 W 22 30 12 16 1005.5 1005.5 0.2
10/10:30am 18.5 15.0 10.8 61 4.2 W 20 26 11 14 1005.6 1005.6 0.0
10/10:00am 18.5 15.4 11.6 64 3.8 W 19 24 10 13 1005.9 1005.9 0.0
10/09:30am 18.4 14.9 10.8 61 4.1 W 20 30 11 16 1006.0 1006.0 0.0
10/09:00am 17.9 13.9 10.5 62 4.0 W 22 32 12 17 1005.9 1005.9 0.0
10/08:30am 17.3 12.3 10.9 66 3.4 W 28 32 15 17 1006.0 1006.0 2.4
10/08:00am 16.1 10.6 10.6 70 2.9 WSW 30 39 16 21 1005.9 1005.9 2.4
10/07:30am 17.2 11.9 9.9 62 3.8 W 28 33 15 18 1005.8 1005.8 2.4
10/07:00am 16.2 10.4 9.6 65 3.4 W 30 37 16 20 1005.7 1005.7 2.4
10/06:30am 16.4 10.4 10.0 66 3.4 W 32 39 17 21 1005.6 1005.6 2.4
10/06:00am 16.0 9.9 9.7 66 3.3 W 32 39 17 21 1005.3 1005.3 2.4
10/05:30am 16.1 10.3 9.5 65 3.4 W 30 39 16 21 1005.0 1005.0 2.4
10/05:00am 16.2 10.6 10.1 67 3.2 W 30 37 16 20 1004.8 1004.8 2.4
10/04:30am 16.1 10.2 10.6 70 2.9 WSW 32 37 17 20 1004.6 1004.6 2.4
10/04:00am 16.1 10.4 11.1 72 2.7 WSW 32 41 17 22 1004.5 1004.5 2.4
10/03:30am 16.2 10.1 10.5 69 3.0 WSW 33 41 18 22 1004.6 1004.6 2.4
10/03:00am 16.5 10.9 11.6 73 2.7 WSW 32 43 17 23 1004.6 1004.6 2.4
10/02:30am 16.4 10.2 12.6 78 2.1 WSW 37 46 20 25 1004.8 1004.8 2.4
10/02:00am 16.3 9.7 13.6 84 1.5 WSW 41 48 22 26 1004.8 1004.8 2.4
10/01:30am 16.7 9.8 14.0 84 1.5 WSW 43 50 23 27 1004.7 1004.7 2.4
10/01:00am 17.1 11.3 14.0 82 1.8 W 37 48 20 26 1005.0 1005.0 2.4
10/12:30am 16.9 11.7 14.4 85 1.4 W 35 44 19 24 1005.3 1005.3 2.4
10/12:00am 16.9 14.7 14.9 88 1.2 W 20 39 11 21 1005.4 1005.4 2.0
 
Date/Time
EST
Temp
°C
App
Temp
°C
Dew
Point
°C
Rel
Hum
%
Delta-T
°C
Wind Press
QNH
hPa
Press
MSL
hPa
Rain since
9am
mm
Dir  Spd
km/h
Gust
km/h
Spd
kts
Gust
kts
09/11:30pm 17.1 16.4 14.4 84 1.6 NW 11 20 6 11 1005.9 1005.9 1.2
09/11:00pm 16.5 16.6 14.5 88 1.1 NNW 7 11 4 6 1006.0 1006.0 1.0
09/10:30pm 17.4 16.8 14.7 84 1.6 NNE 11 17 6 9 1006.2 1006.2 0.8
09/10:00pm 16.1 16.4 14.6 91 0.9 NNE 6 9 3 5 1006.4 1006.4 0.6
09/09:30pm 15.6 15.9 15.0 96 0.3 NE 7 11 4 6 1006.3 1006.3 0.6
09/09:00pm 13.6 13.4 13.0 96 0.3 NE 6 9 3 5 1006.7 1006.7 0.6
09/08:30pm 13.9 14.2 13.3 96 0.3 NE 4 7 2 4 1007.1 1007.1 0.6
09/08:00pm 13.4 13.1 12.8 96 0.3 NNE 6 9 3 5 1007.3 1007.3 0.6
09/07:30pm 12.9 13.4 11.6 92 0.7 CALM 0 0 0 0 1007.2 1007.2 0.6
09/07:15pm 13.8 13.8 12.5 92 0.7 E 4 7 2 4 1007.2 1007.2 0.6
09/07:01pm 14.3 15.3 13.2 93 0.6 CALM 0 0 0 0 1006.9 1006.9 0.6
09/07:00pm 14.3 15.3 13.2 93 0.6 CALM 0 0 0 0 1006.9 1006.9 0.6

Other formats

Comma delimited format used in spreadsheet applications
http://www.bom.gov.au/fwo/IDN60801/IDN60801.94995.axf

JavaScript Object Notation format (JSON) in row-major order
http://www.bom.gov.au/fwo/IDN60801/IDN60801.94995.json

Data quality

Most of these data are generated automatically and are frequently updated. Quality checks on data are not normally performed. It is possible for incorrect values to appear. Refer to information at About Latest Weather Observations and please check the disclaimer before using these data.